createdAt,value
2023-05-14T00:01:31.146Z,35.65
2023-05-14T00:06:33.062Z,34.98
2023-05-14T00:11:35.024Z,35.99
2023-05-14T00:16:36.910Z,35.97
2023-05-14T00:21:38.930Z,34.91
2023-05-14T00:26:40.834Z,34.80
2023-05-14T00:31:42.855Z,36.28
2023-05-14T00:36:44.846Z,32.60
2023-05-14T00:41:46.658Z,33.97
2023-05-14T00:46:48.939Z,35.35
2023-05-14T00:51:51.072Z,33.45
2023-05-14T00:56:53.143Z,34.50
2023-05-14T01:01:55.063Z,35.45
2023-05-14T01:07:08.978Z,36.22
2023-05-14T01:12:19.919Z,36.70
2023-05-14T01:17:23.147Z,36.34
2023-05-14T01:22:25.019Z,33.32
2023-05-14T01:27:38.764Z,35.13
2023-05-14T01:32:41.474Z,36.95
2023-05-14T01:37:44.325Z,36.88
2023-05-14T01:42:48.268Z,37.02
2023-05-14T01:47:50.788Z,39.18
2023-05-14T01:52:56.781Z,38.28
2023-05-14T01:57:58.921Z,39.44
2023-05-14T02:03:00.838Z,39.39
2023-05-14T02:08:02.869Z,37.50
2023-05-14T02:13:04.817Z,39.70
2023-05-14T02:18:06.745Z,39.73
2023-05-14T02:23:08.637Z,37.73
2023-05-14T02:28:10.583Z,38.51
2023-05-14T02:33:13.533Z,38.59
2023-05-14T02:38:15.619Z,37.24
2023-05-14T02:43:17.467Z,39.30
2023-05-14T02:48:19.440Z,37.42
2023-05-14T02:53:21.400Z,38.41
2023-05-14T02:58:26.471Z,36.72
2023-05-14T03:03:30.741Z,36.40
2023-05-14T03:08:33.223Z,38.55
2023-05-14T03:13:35.173Z,36.16
2023-05-14T03:18:37.118Z,37.47
2023-05-14T03:23:39.069Z,38.95
2023-05-14T03:28:40.993Z,37.82
2023-05-14T03:33:42.926Z,38.25
2023-05-14T03:38:44.812Z,37.95
2023-05-14T03:43:46.685Z,37.03
2023-05-14T03:48:48.527Z,37.63
2023-05-14T03:53:50.769Z,37.29
2023-05-14T03:58:52.969Z,37.07
2023-05-14T04:03:55.171Z,36.56
2023-05-14T04:08:57.208Z,36.88
2023-05-14T04:13:59.160Z,36.43
2023-05-14T04:19:03.952Z,36.60
2023-05-14T04:24:06.352Z,35.90
2023-05-14T04:29:08.252Z,35.24
2023-05-14T04:34:10.179Z,33.65
2023-05-14T04:39:12.647Z,34.89
2023-05-14T04:44:14.591Z,34.83
2023-05-14T04:49:16.491Z,34.66
2023-05-14T04:54:18.366Z,34.03
2023-05-14T04:59:20.361Z,34.81
2023-05-14T05:04:24.111Z,34.11
2023-05-14T05:09:25.958Z,35.08
2023-05-14T05:14:27.801Z,36.05
2023-05-14T05:19:42.520Z,35.67
2023-05-14T05:24:46.218Z,33.73
2023-05-14T05:29:48.641Z,32.70
2023-05-14T05:34:52.070Z,30.85
2023-05-14T05:39:54.192Z,30.95
2023-05-14T05:44:56.418Z,31.00
2023-05-14T05:49:58.227Z,28.32
2023-05-14T05:55:00.133Z,28.63
2023-05-14T06:00:09.417Z,28.84
2023-05-14T06:05:14.729Z,27.11
2023-05-14T06:10:16.591Z,27.10
2023-05-14T06:15:18.676Z,25.41
2023-05-14T06:20:20.592Z,24.34
2023-05-14T06:25:23.006Z,24.44
2023-05-14T06:30:25.145Z,20.54
2023-05-14T06:35:27.236Z,18.63
2023-05-14T06:40:29.215Z,22.13
2023-05-14T06:45:33.121Z,21.05
2023-05-14T06:50:35.086Z,20.34
2023-05-14T06:55:36.939Z,20.04
2023-05-14T07:00:38.882Z,16.05
2023-05-14T07:05:41.383Z,19.21
2023-05-14T07:10:43.292Z,20.21
2023-05-14T07:15:45.149Z,20.29
2023-05-14T07:20:46.977Z,21.03
2023-05-14T07:25:48.835Z,21.28
2023-05-14T07:30:50.747Z,21.12
2023-05-14T07:35:52.784Z,21.26
2023-05-14T07:40:54.929Z,21.66
2023-05-14T07:45:56.836Z,21.05
2023-05-14T07:50:58.757Z,21.33
2023-05-14T07:56:00.710Z,21.79
2023-05-14T08:01:04.306Z,22.17
2023-05-14T08:06:06.361Z,22.45
2023-05-14T08:11:08.336Z,23.00
2023-05-14T08:16:10.270Z,23.13
2023-05-14T08:21:12.109Z,22.55
2023-05-14T08:26:13.936Z,22.70
2023-05-14T08:31:15.819Z,23.05
2023-05-14T08:36:17.783Z,22.76
2023-05-14T08:41:19.900Z,22.21
2023-05-14T08:46:23.595Z,21.79
2023-05-14T08:51:26.635Z,23.06
2023-05-14T08:56:30.677Z,20.99
2023-05-14T09:01:33.040Z,20.54
2023-05-14T09:06:38.035Z,20.05
2023-05-14T09:11:43.652Z,19.85
2023-05-14T09:16:46.340Z,19.75
2023-05-14T09:21:49.263Z,20.26
2023-05-14T09:26:52.896Z,19.23
2023-05-14T09:31:55.430Z,19.15
2023-05-14T09:36:58.240Z,18.16
2023-05-14T09:42:00.196Z,18.03
2023-05-14T09:47:02.151Z,19.42
2023-05-14T09:52:06.522Z,18.84
2023-05-14T09:57:08.443Z,16.94
2023-05-14T10:02:16.924Z,16.81
2023-05-14T10:07:21.200Z,17.35
2023-05-14T10:12:23.485Z,16.63
2023-05-14T10:17:29.874Z,18.31
2023-05-14T10:22:34.051Z,17.81
2023-05-14T10:27:36.278Z,18.23
2023-05-14T10:32:38.443Z,17.09
2023-05-14T10:37:40.320Z,18.31
2023-05-14T10:42:46.428Z,16.86
2023-05-14T10:47:48.933Z,17.06
2023-05-14T10:52:51.598Z,16.76
2023-05-14T10:57:53.445Z,17.88
2023-05-14T11:02:57.016Z,18.65
2023-05-14T11:07:59.686Z,18.89
2023-05-14T11:13:01.698Z,19.84
2023-05-14T11:18:03.607Z,20.21
2023-05-14T11:23:05.457Z,19.76
2023-05-14T11:28:07.482Z,19.71
2023-05-14T11:33:09.455Z,19.08
2023-05-14T11:38:17.965Z,17.78
2023-05-14T11:43:19.916Z,18.25
2023-05-14T11:48:22.488Z,18.63
2023-05-14T11:53:31.120Z,18.72
2023-05-14T11:58:33.862Z,19.12
2023-05-14T12:03:35.961Z,19.21
2023-05-14T12:08:38.041Z,19.80
2023-05-14T12:13:40.823Z,19.50
2023-05-14T12:18:43.001Z,19.71
2023-05-14T12:23:44.933Z,19.53
2023-05-14T12:28:47.774Z,19.37
2023-05-14T12:33:49.597Z,19.08
2023-05-14T12:38:57.101Z,19.40
2023-05-14T12:43:59.560Z,19.07
2023-05-14T12:49:01.379Z,19.48
2023-05-14T12:54:03.275Z,19.67
2023-05-14T12:59:05.398Z,19.79
2023-05-14T13:04:08.077Z,19.94
2023-05-14T13:09:10.076Z,20.20
2023-05-14T13:14:11.960Z,20.14
2023-05-14T13:19:15.020Z,20.48
2023-05-14T13:24:17.620Z,20.51
2023-05-14T13:29:19.508Z,21.86
2023-05-14T13:34:21.446Z,21.43
2023-05-14T13:39:27.282Z,21.39
2023-05-14T13:44:29.567Z,21.23
2023-05-14T13:49:31.517Z,20.83
2023-05-14T13:54:33.351Z,20.82
2023-05-14T13:59:35.749Z,20.54
2023-05-14T14:04:37.628Z,20.78
2023-05-14T14:09:39.560Z,21.59
2023-05-14T14:14:41.440Z,21.90
2023-05-14T14:19:43.307Z,22.50
2023-05-14T14:24:45.227Z,21.83
2023-05-14T14:29:47.128Z,22.28
2023-05-14T14:34:48.947Z,23.10
2023-05-14T14:39:50.785Z,23.84
2023-05-14T14:44:52.624Z,22.54
2023-05-14T14:49:54.470Z,22.19
2023-05-14T14:54:56.632Z,22.96
2023-05-14T15:05:00.662Z,23.78
2023-05-14T15:10:02.487Z,23.56
2023-05-14T15:15:05.970Z,22.98
2023-05-14T15:20:09.036Z,24.04
2023-05-14T15:25:11.114Z,23.58
2023-05-14T15:30:13.461Z,24.25
2023-05-14T15:35:15.448Z,24.65
2023-05-14T15:40:18.962Z,24.72
2023-05-14T15:45:21.172Z,23.70
2023-05-14T15:50:23.186Z,24.82
2023-05-14T15:55:25.192Z,25.50
2023-05-14T16:00:27.233Z,24.81
2023-05-14T16:05:29.536Z,25.09
2023-05-14T16:10:31.453Z,25.00
2023-05-14T16:15:33.425Z,25.47
2023-05-14T16:20:35.474Z,25.74
2023-05-14T16:25:38.340Z,25.45
2023-05-14T16:30:40.267Z,25.76
2023-05-14T16:35:42.219Z,26.33
2023-05-14T16:40:44.038Z,25.08
2023-05-14T16:45:45.984Z,26.34
2023-05-14T16:50:47.943Z,27.34
2023-05-14T16:55:49.849Z,26.79
2023-05-14T17:00:51.755Z,27.90
2023-05-14T17:05:55.072Z,25.57
2023-05-14T17:10:57.026Z,27.37
2023-05-14T17:15:59.083Z,28.85
2023-05-14T17:21:01.148Z,29.18
2023-05-14T17:26:03.116Z,29.11
2023-05-14T17:31:05.023Z,28.22
2023-05-14T17:36:07.173Z,30.34
2023-05-14T17:41:09.813Z,29.73
2023-05-14T17:46:11.671Z,29.83
2023-05-14T17:51:13.685Z,29.69
2023-05-14T17:56:17.652Z,30.25
2023-05-14T18:01:19.543Z,30.37
2023-05-14T18:06:21.559Z,29.71
2023-05-14T18:11:23.369Z,29.39
2023-05-14T18:16:25.394Z,30.70
2023-05-14T18:21:27.298Z,30.91
2023-05-14T18:26:29.252Z,31.10
2023-05-14T18:31:31.295Z,31.49
2023-05-14T18:36:33.302Z,31.47
2023-05-14T18:41:35.344Z,31.91
2023-05-14T18:46:37.296Z,30.41
2023-05-14T18:51:39.158Z,31.66
2023-05-14T18:56:46.046Z,30.92
2023-05-14T19:01:49.277Z,32.71
2023-05-14T19:06:51.190Z,32.13
2023-05-14T19:11:53.090Z,31.88
2023-05-14T19:16:54.993Z,32.91
2023-05-14T19:21:56.905Z,32.76
2023-05-14T19:26:58.810Z,32.68
2023-05-14T19:32:00.910Z,32.70
2023-05-14T19:37:02.924Z,33.67
2023-05-14T19:42:04.877Z,34.28
2023-05-14T19:47:07.522Z,34.06
2023-05-14T19:52:11.741Z,33.96
2023-05-14T19:57:13.537Z,34.43
2023-05-14T20:02:18.610Z,34.45
2023-05-14T20:07:20.571Z,34.23
2023-05-14T20:12:22.381Z,34.16
2023-05-14T20:17:24.966Z,34.41
2023-05-14T20:22:26.870Z,34.94
2023-05-14T20:27:28.721Z,35.33
2023-05-14T20:32:30.717Z,35.31
2023-05-14T20:37:33.184Z,35.25
2023-05-14T20:42:36.499Z,35.54
2023-05-14T20:47:38.457Z,35.66
2023-05-14T20:52:40.484Z,35.49
2023-05-14T20:57:43.485Z,35.69
2023-05-14T21:02:45.789Z,36.59
2023-05-14T21:07:48.105Z,36.87
2023-05-14T21:12:50.045Z,35.99
2023-05-14T21:17:51.948Z,36.48
2023-05-14T21:22:53.866Z,36.81
2023-05-14T21:27:55.773Z,37.34
2023-05-14T21:32:57.695Z,38.26
2023-05-14T21:37:59.607Z,37.00
2023-05-14T21:43:01.586Z,36.61
2023-05-14T21:48:03.666Z,37.83
2023-05-14T21:53:05.672Z,37.64
2023-05-14T21:58:07.632Z,37.03
2023-05-14T22:03:09.651Z,37.15
2023-05-14T22:08:11.702Z,38.02
2023-05-14T22:13:13.517Z,37.38
2023-05-14T22:18:15.787Z,37.73
2023-05-14T22:23:17.637Z,38.03
2023-05-14T22:28:19.582Z,39.28
2023-05-14T22:33:21.404Z,39.65
2023-05-14T22:38:23.266Z,38.18
2023-05-14T22:43:25.192Z,39.43
2023-05-14T22:48:27.154Z,39.19
2023-05-14T22:53:29.026Z,39.55
2023-05-14T22:58:30.862Z,39.92
2023-05-14T23:03:32.745Z,40.50
2023-05-14T23:08:34.731Z,40.70
2023-05-14T23:13:36.674Z,41.12
2023-05-14T23:18:38.623Z,40.55
2023-05-14T23:23:40.720Z,40.95
2023-05-14T23:28:42.509Z,40.53
2023-05-14T23:33:44.819Z,41.59
2023-05-14T23:38:47.153Z,41.49
2023-05-14T23:43:49.301Z,41.98
2023-05-14T23:48:52.223Z,41.87
2023-05-14T23:53:58.329Z,42.41
2023-05-14T23:59:00.270Z,42.00
